createdAt,value
2019-04-27T00:00:53.486Z,61.12
2019-04-27T00:05:55.896Z,61.94
2019-04-27T00:10:59.906Z,62.00
2019-04-27T00:16:05.543Z,61.97
2019-04-27T00:21:03.768Z,62.20
2019-04-27T00:26:05.850Z,62.30
2019-04-27T00:31:07.088Z,62.05
2019-04-27T00:36:08.610Z,62.40
2019-04-27T00:41:09.854Z,63.00
2019-04-27T00:46:11.096Z,62.92
2019-04-27T00:51:13.058Z,62.75
2019-04-27T00:56:15.527Z,62.88
2019-04-27T01:01:16.976Z,62.89
2019-04-27T01:06:18.347Z,62.96
2019-04-27T01:11:20.036Z,63.08
2019-04-27T01:16:24.213Z,63.33
2019-04-27T01:21:25.751Z,63.19
2019-04-27T01:26:28.618Z,63.00
2019-04-27T01:31:30.232Z,63.43
2019-04-27T01:36:31.908Z,63.59
2019-04-27T01:41:33.464Z,63.41
2019-04-27T01:46:34.720Z,63.45
2019-04-27T01:51:35.960Z,63.39
2019-04-27T01:56:37.340Z,63.34
2019-04-27T02:01:39.036Z,63.25
2019-04-27T02:06:40.688Z,63.30
2019-04-27T02:11:42.020Z,63.97
2019-04-27T02:16:43.580Z,63.42
2019-04-27T02:21:45.189Z,63.42
2019-04-27T02:26:46.484Z,63.63
2019-04-27T02:31:50.040Z,64.17
2019-04-27T02:36:51.018Z,64.22
2019-04-27T02:41:52.221Z,64.22
2019-04-27T02:46:53.799Z,64.82
2019-04-27T02:51:55.034Z,65.59
2019-04-27T02:56:56.307Z,65.79
2019-04-27T03:02:00.796Z,65.96
2019-04-27T03:07:01.241Z,66.34
2019-04-27T03:12:03.233Z,66.37
2019-04-27T03:17:04.750Z,66.15
2019-04-27T03:22:06.451Z,65.93
2019-04-27T03:27:09.692Z,66.37
2019-04-27T03:32:12.448Z,66.05
2019-04-27T03:37:14.544Z,65.64
2019-04-27T03:42:15.799Z,65.59
2019-04-27T03:47:19.510Z,65.62
2019-04-27T03:52:20.720Z,65.70
2019-04-27T03:57:24.010Z,65.79
2019-04-27T04:02:25.398Z,66.07
2019-04-27T04:07:27.087Z,66.17
2019-04-27T04:12:30.271Z,65.75
2019-04-27T04:17:31.939Z,65.73
2019-04-27T04:22:33.156Z,65.94
2019-04-27T04:27:34.529Z,65.90
2019-04-27T04:32:39.268Z,66.14
2019-04-27T04:37:40.421Z,66.36
2019-04-27T04:42:42.392Z,69.72
2019-04-27T04:47:43.699Z,68.34
2019-04-27T04:52:45.262Z,68.38
2019-04-27T04:57:49.115Z,68.00
2019-04-27T05:02:50.198Z,68.13
2019-04-27T05:07:51.427Z,68.54
2019-04-27T05:12:52.752Z,69.14
2019-04-27T05:17:53.984Z,69.75
2019-04-27T05:22:55.253Z,69.95
2019-04-27T05:27:56.514Z,70.44
2019-04-27T05:32:58.561Z,70.18
2019-04-27T05:38:00.910Z,70.24
2019-04-27T05:43:03.251Z,70.58
2019-04-27T05:48:05.145Z,71.36
2019-04-27T05:53:08.660Z,72.18
2019-04-27T05:58:10.010Z,72.41
2019-04-27T06:03:11.291Z,71.99
2019-04-27T06:08:12.981Z,71.77
2019-04-27T06:13:14.309Z,72.18
2019-04-27T06:18:15.656Z,72.00
2019-04-27T06:23:18.651Z,72.20
2019-04-27T06:28:20.732Z,72.40
2019-04-27T06:33:32.070Z,73.35
2019-04-27T06:38:25.450Z,73.15
2019-04-27T06:43:26.908Z,72.86
2019-04-27T06:48:29.608Z,73.30
2019-04-27T06:53:31.748Z,74.05
2019-04-27T06:58:33.450Z,73.15
2019-04-27T07:03:35.243Z,73.53
2019-04-27T07:08:36.625Z,72.75
2019-04-27T07:13:39.060Z,72.77
2019-04-27T07:18:40.489Z,73.80
2019-04-27T07:23:42.183Z,67.26
2019-04-27T07:28:43.832Z,67.84
2019-04-27T07:33:45.193Z,68.15
2019-04-27T07:38:46.547Z,66.73
2019-04-27T07:43:49.378Z,64.74
2019-04-27T07:48:50.946Z,64.55
2019-04-27T07:53:52.847Z,62.50
2019-04-27T07:58:54.206Z,62.90
2019-04-27T08:03:56.727Z,61.63
2019-04-27T08:08:59.339Z,61.69
2019-04-27T08:14:00.800Z,60.33
2019-04-27T08:19:02.413Z,59.17
2019-04-27T08:24:03.928Z,59.03
2019-04-27T08:29:05.425Z,58.07
2019-04-27T08:34:08.557Z,57.88
2019-04-27T08:39:10.311Z,58.03
2019-04-27T08:44:11.739Z,58.83
2019-04-27T08:49:13.259Z,56.92
2019-04-27T08:54:15.605Z,55.73
2019-04-27T08:59:17.114Z,55.41
2019-04-27T09:04:20.046Z,53.43
2019-04-27T09:09:22.091Z,53.37
2019-04-27T09:14:23.352Z,54.13
2019-04-27T09:19:25.061Z,52.66
2019-04-27T09:24:26.535Z,52.22
2019-04-27T09:29:29.822Z,52.89
2019-04-27T09:34:31.444Z,52.17
2019-04-27T09:39:33.239Z,51.99
2019-04-27T09:44:34.736Z,49.55
2019-04-27T09:49:38.111Z,49.46
2019-04-27T09:54:39.630Z,49.29
2019-04-27T09:59:40.880Z,49.18
2019-04-27T10:04:42.547Z,49.02
2019-04-27T10:09:45.504Z,48.46
2019-04-27T10:14:47.838Z,48.19
2019-04-27T10:19:49.753Z,48.76
2019-04-27T10:24:51.123Z,48.76
2019-04-27T10:29:52.889Z,49.00
2019-04-27T10:34:54.370Z,48.27
2019-04-27T10:39:56.103Z,49.14
2019-04-27T10:44:57.555Z,49.08
2019-04-27T10:49:58.997Z,48.26
2019-04-27T10:55:00.731Z,48.04
2019-04-27T11:00:02.218Z,48.10
2019-04-27T11:05:04.644Z,46.67
2019-04-27T11:10:07.560Z,47.00
2019-04-27T11:15:09.341Z,46.37
2019-04-27T11:20:10.870Z,44.91
2019-04-27T11:25:12.287Z,44.89
2019-04-27T11:30:15.659Z,45.87
2019-04-27T11:35:17.147Z,46.96
2019-04-27T11:40:18.912Z,46.04
2019-04-27T11:45:20.380Z,47.28
2019-04-27T11:50:21.644Z,47.09
2019-04-27T11:55:23.399Z,43.33
2019-04-27T12:00:25.155Z,45.43
2019-04-27T12:05:26.782Z,44.98
2019-04-27T12:10:28.380Z,46.64
2019-04-27T12:15:30.041Z,47.82
2019-04-27T12:20:32.025Z,48.09
2019-04-27T12:25:33.651Z,46.66
2019-04-27T12:30:34.971Z,55.50
2019-04-27T12:35:36.922Z,59.14
2019-04-27T12:40:38.477Z,59.29
2019-04-27T12:45:43.446Z,60.57
2019-04-27T12:50:43.809Z,61.29
2019-04-27T12:55:46.512Z,57.28
2019-04-27T13:00:48.580Z,52.56
2019-04-27T13:05:50.140Z,53.23
2019-04-27T13:10:51.648Z,54.75
2019-04-27T13:15:53.203Z,53.33
2019-04-27T13:20:54.681Z,52.24
2019-04-27T13:25:56.521Z,50.23
2019-04-27T13:30:58.135Z,51.03
2019-04-27T13:35:59.483Z,49.92
2019-04-27T13:41:00.997Z,50.31
2019-04-27T13:46:02.949Z,52.07
2019-04-27T13:51:06.513Z,52.07
2019-04-27T13:56:08.017Z,51.54
2019-04-27T14:01:09.407Z,51.18
2019-04-27T14:06:10.938Z,49.36
2019-04-27T14:11:12.521Z,49.48
2019-04-27T14:16:13.922Z,49.25
2019-04-27T14:21:15.433Z,47.49
2019-04-27T14:26:18.469Z,48.91
2019-04-27T14:31:20.454Z,48.61
2019-04-27T14:36:22.681Z,50.34
2019-04-27T14:41:23.954Z,49.28
2019-04-27T14:46:25.206Z,48.99
2019-04-27T14:51:26.786Z,46.13
2019-04-27T14:56:28.506Z,46.99
2019-04-27T15:01:29.867Z,47.05
2019-04-27T15:06:31.855Z,47.86
2019-04-27T15:11:34.657Z,47.46
2019-04-27T15:16:37.926Z,47.81
2019-04-27T15:21:41.777Z,47.16
2019-04-27T15:26:43.152Z,46.24
2019-04-27T15:31:44.555Z,46.21
2019-04-27T15:36:45.945Z,48.01
2019-04-27T15:41:48.535Z,47.77
2019-04-27T15:46:50.108Z,51.35
2019-04-27T15:51:54.774Z,54.90
2019-04-27T15:56:54.904Z,54.11
2019-04-27T16:01:56.590Z,52.57
2019-04-27T16:06:58.273Z,51.17
2019-04-27T16:12:09.966Z,49.10
2019-04-27T16:17:08.075Z,49.18
2019-04-27T16:22:08.179Z,49.99
2019-04-27T16:27:09.889Z,49.56
2019-04-27T16:32:13.052Z,49.93
2019-04-27T16:37:18.935Z,49.68
2019-04-27T16:42:18.666Z,52.87
2019-04-27T16:47:24.338Z,55.75
2019-04-27T16:52:23.542Z,56.62
2019-04-27T16:57:24.961Z,55.84
2019-04-27T17:02:26.229Z,54.31
2019-04-27T17:07:30.226Z,54.39
2019-04-27T17:12:34.858Z,54.11
2019-04-27T17:17:34.404Z,53.92
2019-04-27T17:22:35.632Z,52.61
2019-04-27T17:27:38.287Z,53.84
2019-04-27T17:32:39.653Z,55.65
2019-04-27T17:37:41.066Z,55.95
2019-04-27T17:42:42.658Z,56.35
2019-04-27T17:47:44.130Z,56.75
2019-04-27T17:52:49.774Z,56.52
2019-04-27T17:57:49.098Z,55.01
2019-04-27T18:02:50.531Z,53.63
2019-04-27T18:07:52.090Z,53.87
2019-04-27T18:12:53.625Z,52.83
2019-04-27T18:17:55.202Z,52.87
2019-04-27T18:22:58.038Z,54.08
2019-04-27T18:27:59.888Z,54.33
2019-04-27T18:33:02.231Z,54.88
2019-04-27T18:38:05.487Z,55.75
2019-04-27T18:43:12.176Z,57.13
2019-04-27T18:48:13.855Z,57.58
2019-04-27T18:53:16.386Z,57.65
2019-04-27T18:58:19.282Z,57.99
2019-04-27T19:03:20.631Z,58.04
2019-04-27T19:08:22.174Z,58.10
2019-04-27T19:13:23.408Z,58.48
2019-04-27T19:18:24.640Z,58.60
2019-04-27T19:23:26.179Z,58.13
2019-04-27T19:28:28.298Z,57.59
2019-04-27T19:33:31.900Z,57.14
2019-04-27T19:38:33.375Z,56.40
2019-04-27T19:43:34.751Z,56.41
2019-04-27T19:48:36.307Z,56.22
2019-04-27T19:53:39.385Z,56.41
2019-04-27T19:58:40.935Z,56.84
2019-04-27T20:03:42.940Z,57.73
2019-04-27T20:08:44.785Z,58.11
2019-04-27T20:13:46.438Z,58.92
2019-04-27T20:18:48.289Z,59.10
2019-04-27T20:23:50.697Z,59.48
2019-04-27T20:28:52.539Z,59.16
2019-04-27T20:33:54.164Z,59.33
2019-04-27T20:38:55.748Z,59.21
2019-04-27T20:43:57.151Z,60.40
2019-04-27T20:48:58.615Z,61.38
2019-04-27T20:54:01.682Z,63.70
2019-04-27T20:59:03.438Z,65.00
2019-04-27T21:04:05.401Z,64.46
2019-04-27T21:09:12.821Z,64.87
2019-04-27T21:14:14.338Z,64.62
2019-04-27T21:19:15.623Z,64.58
2019-04-27T21:24:17.017Z,64.91
2019-04-27T21:29:18.409Z,64.86
2019-04-27T21:34:19.863Z,65.23
2019-04-27T21:39:21.775Z,65.14
2019-04-27T21:44:23.140Z,65.56
2019-04-27T21:49:24.533Z,65.81
2019-04-27T21:54:26.400Z,65.57
2019-04-27T21:59:29.253Z,65.59
2019-04-27T22:04:31.509Z,65.58
2019-04-27T22:09:33.387Z,65.71
2019-04-27T22:14:34.658Z,66.06
2019-04-27T22:19:35.909Z,65.75
2019-04-27T22:24:37.291Z,68.61
2019-04-27T22:29:39.121Z,68.94
2019-04-27T22:34:41.363Z,68.81
2019-04-27T22:39:43.014Z,68.63
2019-04-27T22:44:44.408Z,69.79
2019-04-27T22:49:45.816Z,70.07
2019-04-27T22:54:47.154Z,71.32
2019-04-27T22:59:48.402Z,71.35
2019-04-27T23:04:51.473Z,71.62
2019-04-27T23:09:52.872Z,70.94
2019-04-27T23:14:54.167Z,72.38
2019-04-27T23:19:55.522Z,73.45
2019-04-27T23:24:57.116Z,72.83
2019-04-27T23:29:58.670Z,73.57
2019-04-27T23:34:59.933Z,74.18
2019-04-27T23:40:02.934Z,74.54
2019-04-27T23:45:05.432Z,74.74
2019-04-27T23:50:06.782Z,73.92
2019-04-27T23:55:08.030Z,74.58
